Guarani, Argentina
Current Conditions -  °F | °C
As of 5:00 AM on Wednesday 22 Oct 2014 (Local Time) from SARP Reporting Station
Clear Clear  
Wind Chill: 66°   Ceiling: Unl
Heat Index: 66°   Visibility: 6mi
Dew Point: 52°   Wind: 7mph
Humidity: 60%   Direction: 90°E
Pressure: 30"   Gusts: NA
Location:  27.52°S, 55.17°W
Report Text: SARP 220800Z 09006KT CAVOK 19/11 Q1016
Loading
Personal Weather Stations






























Interactive Weather Map
Tropical Storm Tracking
New forecast layout! Learn more

10-Day Weather Forecast

Advertisements
Track Severe Weather on mobile